createdAt,value
2023-05-04T00:00:27.486Z,9.91
2023-05-04T00:01:27.612Z,9.94
2023-05-04T00:02:27.525Z,9.91
2023-05-04T00:03:27.543Z,9.99
2023-05-04T00:04:27.511Z,9.97
2023-05-04T00:05:27.437Z,9.91
2023-05-04T00:06:27.423Z,9.97
2023-05-04T00:07:27.435Z,9.94
2023-05-04T00:08:27.398Z,9.92
2023-05-04T00:09:27.386Z,9.92
2023-05-04T00:10:27.369Z,9.89
2023-05-04T00:11:27.358Z,9.92
2023-05-04T00:12:27.377Z,9.92
2023-05-04T00:13:27.448Z,9.87
2023-05-04T00:14:27.334Z,9.91
2023-05-04T00:15:27.312Z,9.84
2023-05-04T00:16:27.380Z,9.76
2023-05-04T00:17:27.335Z,9.76
2023-05-04T00:18:27.277Z,9.77
2023-05-04T00:19:27.278Z,9.77
2023-05-04T00:20:27.273Z,9.83
2023-05-04T00:21:27.245Z,9.77
2023-05-04T00:22:27.234Z,9.77
2023-05-04T00:23:27.216Z,9.76
2023-05-04T00:24:27.221Z,9.74
2023-05-04T00:25:27.413Z,9.74
2023-05-04T00:26:27.189Z,9.62
2023-05-04T00:27:27.188Z,9.66
2023-05-04T00:28:27.192Z,9.68
2023-05-04T00:29:27.161Z,9.65
2023-05-04T00:30:27.149Z,9.58
2023-05-04T00:31:27.171Z,9.61
2023-05-04T00:32:27.205Z,9.58
2023-05-04T00:33:27.141Z,9.64
2023-05-04T00:34:27.101Z,9.64
2023-05-04T00:35:27.106Z,9.64
2023-05-04T00:36:27.078Z,9.64
2023-05-04T00:37:27.124Z,9.61
2023-05-04T00:38:27.057Z,9.41
2023-05-04T00:39:27.057Z,9.44
2023-05-04T00:40:27.032Z,9.46
2023-05-04T00:41:27.021Z,9.36
2023-05-04T00:42:27.038Z,9.32
2023-05-04T00:43:26.999Z,9.40
2023-05-04T00:44:26.989Z,9.32
2023-05-04T00:45:26.980Z,9.39
2023-05-04T00:46:27.035Z,9.34
2023-05-04T00:47:27.064Z,9.29
2023-05-04T00:48:26.942Z,9.37
2023-05-04T00:49:26.951Z,9.34
2023-05-04T00:50:26.927Z,9.36
2023-05-04T00:51:26.939Z,9.43
2023-05-04T00:52:26.901Z,9.41
2023-05-04T00:53:26.884Z,9.43
2023-05-04T00:54:26.889Z,9.37
2023-05-04T00:55:26.865Z,9.36
2023-05-04T00:56:26.870Z,9.40
2023-05-04T00:57:26.844Z,9.36
2023-05-04T00:58:26.833Z,9.25
2023-05-04T00:59:26.826Z,9.34
2023-05-04T01:00:26.807Z,9.31
2023-05-04T01:01:26.849Z,9.32
2023-05-04T01:02:26.809Z,9.29
2023-05-04T01:03:26.848Z,9.29
2023-05-04T01:04:26.765Z,9.23
2023-05-04T01:05:26.794Z,9.26
2023-05-04T01:06:26.752Z,9.29
2023-05-04T01:07:26.764Z,9.29
2023-05-04T01:08:26.720Z,9.29
2023-05-04T01:09:26.704Z,9.21
2023-05-04T01:10:26.698Z,9.23
2023-05-04T01:11:26.705Z,9.23
2023-05-04T01:12:26.696Z,9.18
2023-05-04T01:13:26.665Z,9.21
2023-05-04T01:14:26.659Z,9.25
2023-05-04T01:15:26.647Z,9.28
2023-05-04T01:16:26.671Z,9.13
2023-05-04T01:17:26.648Z,9.00
2023-05-04T01:18:26.603Z,9.08
2023-05-04T01:19:26.593Z,8.97
2023-05-04T01:20:26.586Z,9.06
2023-05-04T01:21:26.608Z,9.06
2023-05-04T01:22:26.571Z,9.00
2023-05-04T01:23:26.584Z,8.99
2023-05-04T01:24:26.539Z,9.02
2023-05-04T01:25:26.526Z,8.95
2023-05-04T01:26:26.530Z,8.92
2023-05-04T01:27:26.557Z,8.99
2023-05-04T01:28:26.492Z,9.03
2023-05-04T01:29:26.506Z,8.85
2023-05-04T01:30:26.475Z,8.81
2023-05-04T01:31:26.640Z,8.88
2023-05-04T01:32:26.479Z,8.85
2023-05-04T01:33:26.443Z,8.76
2023-05-04T01:34:26.428Z,8.78
2023-05-04T01:35:26.414Z,8.78
2023-05-04T01:36:26.397Z,8.79
2023-05-04T01:37:26.416Z,8.76
2023-05-04T01:38:26.375Z,8.82
2023-05-04T01:39:26.370Z,8.74
2023-05-04T01:40:26.367Z,8.79
2023-05-04T01:41:26.374Z,8.78
2023-05-04T01:42:26.339Z,8.78
2023-05-04T01:43:26.319Z,8.78
2023-05-04T01:44:26.308Z,8.74
2023-05-04T01:45:26.297Z,8.69
2023-05-04T01:46:26.321Z,8.67
2023-05-04T01:47:26.292Z,8.69
2023-05-04T01:48:27.963Z,8.70
2023-05-04T01:49:26.252Z,8.71
2023-05-04T01:50:26.235Z,8.64
2023-05-04T01:51:26.250Z,8.58
2023-05-04T01:52:26.224Z,8.61
2023-05-04T01:53:26.311Z,8.60
2023-05-04T01:54:26.202Z,8.60
2023-05-04T01:55:26.221Z,8.53
2023-05-04T01:56:26.178Z,8.58
2023-05-04T01:57:26.160Z,8.60
2023-05-04T01:58:26.152Z,8.52
2023-05-04T01:59:26.159Z,8.52
2023-05-04T02:00:26.136Z,8.48
2023-05-04T02:01:26.168Z,8.44
2023-05-04T02:02:26.114Z,8.44
2023-05-04T02:03:26.183Z,8.31
2023-05-04T02:04:26.096Z,8.28
2023-05-04T02:05:26.078Z,8.30
2023-05-04T02:06:26.060Z,8.23
2023-05-04T02:07:26.052Z,8.31
2023-05-04T02:08:26.046Z,8.34
2023-05-04T02:09:26.066Z,8.31
2023-05-04T02:10:26.030Z,8.33
2023-05-04T02:11:26.000Z,8.28
2023-05-04T02:12:25.996Z,8.34
2023-05-04T02:13:25.982Z,8.31
2023-05-04T02:14:26.022Z,8.36
2023-05-04T02:15:25.964Z,8.30
2023-05-04T02:16:26.016Z,8.24
2023-05-04T02:17:25.967Z,8.19
2023-05-04T02:18:26.026Z,8.26
2023-05-04T02:19:25.926Z,8.24
2023-05-04T02:20:25.914Z,8.26
2023-05-04T02:21:25.930Z,8.34
2023-05-04T02:22:25.906Z,8.24
2023-05-04T02:23:25.874Z,8.20
2023-05-04T02:24:25.878Z,8.19
2023-05-04T02:25:25.868Z,8.18
2023-05-04T02:26:25.850Z,8.13
2023-05-04T02:27:25.842Z,8.13
2023-05-04T02:28:25.850Z,8.12
2023-05-04T02:29:25.801Z,8.12
2023-05-04T02:30:25.853Z,8.12
2023-05-04T02:31:25.824Z,8.16
2023-05-04T02:32:25.864Z,8.20
2023-05-04T02:33:25.786Z,8.10
2023-05-04T02:34:25.754Z,8.18
2023-05-04T02:35:25.746Z,8.20
2023-05-04T02:36:25.727Z,8.15
2023-05-04T02:37:25.761Z,8.18
2023-05-04T02:38:25.720Z,8.16
2023-05-04T02:39:25.699Z,8.18
2023-05-04T02:40:25.685Z,8.15
2023-05-04T02:41:25.692Z,8.13
2023-05-04T02:42:25.675Z,8.00
2023-05-04T02:43:25.653Z,8.09
2023-05-04T02:44:25.635Z,8.03
2023-05-04T02:45:25.683Z,8.06
2023-05-04T02:46:25.624Z,8.00
2023-05-04T02:47:25.656Z,7.98
2023-05-04T02:48:25.615Z,8.03
2023-05-04T02:49:25.633Z,7.97
2023-05-04T02:50:25.600Z,8.01
2023-05-04T02:51:25.644Z,8.01
2023-05-04T02:52:25.554Z,8.06
2023-05-04T02:53:25.554Z,7.94
2023-05-04T02:54:25.535Z,8.06
2023-05-04T02:55:25.533Z,8.05
2023-05-04T02:56:25.506Z,8.01
2023-05-04T02:57:25.527Z,8.05
2023-05-04T02:58:25.487Z,8.03
2023-05-04T02:59:25.522Z,8.09
2023-05-04T03:00:25.466Z,8.00
2023-05-04T03:01:25.497Z,7.95
2023-05-04T03:02:25.478Z,7.98
2023-05-04T03:03:25.461Z,8.00
2023-05-04T03:04:25.489Z,8.00
2023-05-04T03:05:32.630Z,7.95
2023-05-04T03:06:25.397Z,7.93
2023-05-04T03:07:25.405Z,7.93
2023-05-04T03:08:25.392Z,7.80
2023-05-04T03:09:25.384Z,7.79
2023-05-04T03:10:25.363Z,7.79
2023-05-04T03:11:25.343Z,7.79
2023-05-04T03:12:25.366Z,7.69
2023-05-04T03:13:25.376Z,7.70
2023-05-04T03:14:25.312Z,7.70
2023-05-04T03:15:25.301Z,7.73
2023-05-04T03:16:25.352Z,7.69
2023-05-04T03:17:25.304Z,7.66
2023-05-04T03:18:25.262Z,7.60
2023-05-04T03:19:25.253Z,7.57
2023-05-04T03:20:25.247Z,7.69
2023-05-04T03:21:25.235Z,7.60
2023-05-04T03:22:25.237Z,7.63
2023-05-04T03:23:25.210Z,7.63
2023-05-04T03:24:25.208Z,7.61
2023-05-04T03:25:25.223Z,7.69
2023-05-04T03:26:25.190Z,7.60
2023-05-04T03:27:25.204Z,7.61
2023-05-04T03:28:25.166Z,7.57
2023-05-04T03:29:25.166Z,7.60
2023-05-04T03:30:25.150Z,7.56
2023-05-04T03:31:25.193Z,7.60
2023-05-04T03:32:25.167Z,7.66
2023-05-04T03:33:25.096Z,7.63
2023-05-04T03:34:25.103Z,7.56
2023-05-04T03:35:25.384Z,7.63
2023-05-04T03:36:25.065Z,7.63
2023-05-04T03:37:25.062Z,7.61
2023-05-04T03:38:25.044Z,7.58
2023-05-04T03:39:25.035Z,7.60
2023-05-04T03:40:25.040Z,7.70
2023-05-04T03:41:25.013Z,7.72
2023-05-04T03:42:25.001Z,7.66
2023-05-04T03:43:24.989Z,7.66
2023-05-04T03:44:24.993Z,7.61
2023-05-04T03:45:24.985Z,7.66
2023-05-04T03:46:24.989Z,7.66
2023-05-04T03:47:24.967Z,7.70
2023-05-04T03:48:24.957Z,7.73
2023-05-04T03:49:24.939Z,7.73
2023-05-04T03:50:24.910Z,7.72
2023-05-04T03:51:24.915Z,7.72
2023-05-04T03:52:24.888Z,7.73
2023-05-04T03:53:24.903Z,7.69
2023-05-04T03:54:24.866Z,7.70
2023-05-04T03:55:24.858Z,7.76
2023-05-04T03:56:24.894Z,7.82
2023-05-04T03:57:24.829Z,7.82
2023-05-04T03:58:24.821Z,7.79
2023-05-04T03:59:24.844Z,7.83
2023-05-04T04:00:24.791Z,7.82
2023-05-04T04:01:25.347Z,7.82
2023-05-04T04:02:25.092Z,7.72
2023-05-04T04:03:25.545Z,7.75
2023-05-04T04:04:24.845Z,7.73
2023-05-04T04:05:24.758Z,7.80
2023-05-04T04:06:24.729Z,7.87
2023-05-04T04:07:24.721Z,7.90
2023-05-04T04:08:24.712Z,7.87
2023-05-04T04:09:24.733Z,7.87
2023-05-04T04:10:24.684Z,7.85
2023-05-04T04:11:24.682Z,7.88
2023-05-04T04:12:24.682Z,7.98
2023-05-04T04:13:24.651Z,7.98
2023-05-04T04:14:24.653Z,8.00
2023-05-04T04:15:24.641Z,7.97
2023-05-04T04:16:24.712Z,8.08
2023-05-04T04:17:24.781Z,8.06
2023-05-04T04:18:24.595Z,8.13
2023-05-04T04:19:24.618Z,8.12
2023-05-04T04:20:24.575Z,8.08
2023-05-04T04:21:24.569Z,8.05
2023-05-04T04:22:24.556Z,8.01
2023-05-04T04:23:24.566Z,8.13
2023-05-04T04:24:24.550Z,8.16
2023-05-04T04:25:24.553Z,8.13
2023-05-04T04:26:24.505Z,8.06
2023-05-04T04:27:24.550Z,8.08
2023-05-04T04:28:24.517Z,8.15
2023-05-04T04:29:24.499Z,8.23
2023-05-04T04:30:24.507Z,8.10
2023-05-04T04:31:24.509Z,8.26
2023-05-04T04:32:24.606Z,8.23
2023-05-04T04:33:24.483Z,8.31
2023-05-04T04:34:24.488Z,8.30
2023-05-04T04:35:24.426Z,8.23
2023-05-04T04:36:24.401Z,8.19
2023-05-04T04:37:24.435Z,8.23
2023-05-04T04:38:24.378Z,8.18
2023-05-04T04:39:24.434Z,8.18
2023-05-04T04:40:24.373Z,8.27
2023-05-04T04:41:24.359Z,8.23
2023-05-04T04:42:24.333Z,8.23
2023-05-04T04:43:24.324Z,8.33
2023-05-04T04:44:24.319Z,8.36
2023-05-04T04:45:24.298Z,8.30
2023-05-04T04:46:24.350Z,8.33
2023-05-04T04:47:24.304Z,8.30
2023-05-04T04:48:24.264Z,8.33
2023-05-04T04:49:24.423Z,8.28
2023-05-04T04:50:24.275Z,8.28
2023-05-04T04:51:24.284Z,8.34
2023-05-04T04:52:24.216Z,8.41
2023-05-04T04:53:24.222Z,8.48
2023-05-04T04:54:24.198Z,8.42
2023-05-04T04:55:24.190Z,8.46
2023-05-04T04:56:24.192Z,8.58
2023-05-04T04:57:24.172Z,8.58
2023-05-04T04:58:24.154Z,8.49
2023-05-04T04:59:24.144Z,8.55
2023-05-04T05:00:24.190Z,8.53
2023-05-04T05:01:24.197Z,8.67
2023-05-04T05:02:24.110Z,8.69
2023-05-04T05:03:24.102Z,8.69
2023-05-04T05:04:24.094Z,8.66
2023-05-04T05:05:24.450Z,8.71
2023-05-04T05:06:24.107Z,8.78
2023-05-04T05:07:24.066Z,8.76
2023-05-04T05:08:24.044Z,8.85
2023-05-04T05:09:24.034Z,8.73
2023-05-04T05:10:24.021Z,8.78
2023-05-04T05:11:24.053Z,8.79
2023-05-04T05:12:24.009Z,8.82
2023-05-04T05:13:24.842Z,8.82
2023-05-04T05:14:23.989Z,8.89
2023-05-04T05:15:24.039Z,8.88
2023-05-04T05:16:23.997Z,8.88
2023-05-04T05:17:23.998Z,9.04
2023-05-04T05:18:23.936Z,9.02
2023-05-04T05:19:23.926Z,9.06
2023-05-04T05:20:23.933Z,9.06
2023-05-04T05:21:23.926Z,9.13
2023-05-04T05:22:23.930Z,9.23
2023-05-04T05:23:23.878Z,9.23
2023-05-04T05:24:23.868Z,9.19
2023-05-04T05:25:23.894Z,9.22
2023-05-04T05:26:23.853Z,9.28
2023-05-04T05:27:23.846Z,9.18
2023-05-04T05:28:23.830Z,9.23
2023-05-04T05:29:23.812Z,9.29
2023-05-04T05:30:23.853Z,9.28
2023-05-04T05:31:23.860Z,9.43
2023-05-04T05:32:23.813Z,9.48
2023-05-04T05:33:23.769Z,9.47
2023-05-04T05:34:23.755Z,9.46
2023-05-04T05:35:23.744Z,9.40
2023-05-04T05:36:23.741Z,9.59
2023-05-04T05:37:23.788Z,9.58
2023-05-04T05:38:23.709Z,9.66
2023-05-04T05:39:23.734Z,9.65
2023-05-04T05:40:23.692Z,9.58
2023-05-04T05:41:23.957Z,9.65
2023-05-04T05:42:23.665Z,9.73
2023-05-04T05:43:23.652Z,9.79
2023-05-04T05:44:23.641Z,9.94
2023-05-04T05:45:23.647Z,10.01
2023-05-04T05:46:23.799Z,10.01
2023-05-04T05:47:23.652Z,10.05
2023-05-04T05:48:23.604Z,9.98
2023-05-04T05:49:23.584Z,10.02
2023-05-04T05:50:23.571Z,10.10
2023-05-04T05:51:23.590Z,10.13
2023-05-04T05:52:23.551Z,10.09
2023-05-04T05:53:23.567Z,10.22
2023-05-04T05:54:23.533Z,10.19
2023-05-04T05:55:23.520Z,10.34
2023-05-04T05:56:23.574Z,10.40
2023-05-04T05:57:23.521Z,10.53
2023-05-04T05:58:23.585Z,10.69
2023-05-04T05:59:23.480Z,10.75
2023-05-04T06:00:23.460Z,10.84
2023-05-04T06:01:24.203Z,10.87
2023-05-04T06:02:23.498Z,11.11
2023-05-04T06:03:23.572Z,11.15
2023-05-04T06:04:23.468Z,11.18
2023-05-04T06:05:23.407Z,11.36
2023-05-04T06:06:23.399Z,11.33
2023-05-04T06:07:23.402Z,11.47
2023-05-04T06:08:23.521Z,11.59
2023-05-04T06:09:23.384Z,11.68
2023-05-04T06:10:23.354Z,11.84
2023-05-04T06:11:23.336Z,12.00
2023-05-04T06:12:23.359Z,11.94
2023-05-04T06:13:23.462Z,12.03
2023-05-04T06:14:23.304Z,12.17
2023-05-04T06:15:23.317Z,12.22
2023-05-04T06:16:23.324Z,12.42
2023-05-04T06:17:23.390Z,12.53
2023-05-04T06:18:23.275Z,12.57
2023-05-04T06:19:23.256Z,12.70
2023-05-04T06:20:23.249Z,12.76
2023-05-04T06:21:23.250Z,12.93
2023-05-04T06:22:23.230Z,13.15
2023-05-04T06:23:23.229Z,13.42
2023-05-04T06:24:23.190Z,13.53
2023-05-04T06:25:23.265Z,13.87
2023-05-04T06:26:23.182Z,14.03
2023-05-04T06:27:24.527Z,14.32
2023-05-04T06:28:23.143Z,14.66
2023-05-04T06:29:23.135Z,14.77
2023-05-04T06:30:23.118Z,14.96
2023-05-04T06:31:23.132Z,15.11
2023-05-04T06:32:23.152Z,15.49
2023-05-04T06:33:23.101Z,15.94
2023-05-04T06:34:23.076Z,16.36
2023-05-04T06:35:23.064Z,16.71
2023-05-04T06:36:23.067Z,17.09
2023-05-04T06:37:23.043Z,17.52
2023-05-04T06:38:23.030Z,18.10
2023-05-04T06:39:23.034Z,18.43
2023-05-04T06:40:23.025Z,18.86
2023-05-04T06:41:23.034Z,19.36
2023-05-04T06:42:22.988Z,19.82
2023-05-04T06:43:22.974Z,20.36
2023-05-04T06:44:23.131Z,20.87
2023-05-04T06:45:22.959Z,21.29
2023-05-04T06:46:23.070Z,21.29
2023-05-04T06:47:22.979Z,20.96
2023-05-04T06:48:22.923Z,20.78
2023-05-04T06:49:22.909Z,20.24
2023-05-04T06:50:22.926Z,20.26
2023-05-04T06:51:22.897Z,21.02
2023-05-04T06:52:22.902Z,21.36
2023-05-04T06:53:22.869Z,20.25
2023-05-04T06:54:22.852Z,20.24
2023-05-04T06:55:22.867Z,21.09
2023-05-04T06:56:22.860Z,21.91
2023-05-04T06:57:22.866Z,22.75
2023-05-04T06:58:22.883Z,23.27
2023-05-04T06:59:22.821Z,23.65
2023-05-04T07:00:22.894Z,24.26
2023-05-04T07:01:22.820Z,24.47
2023-05-04T07:02:23.033Z,24.88
2023-05-04T07:03:22.812Z,25.01
2023-05-04T07:04:22.760Z,25.43
2023-05-04T07:05:22.747Z,25.80
2023-05-04T07:06:22.721Z,25.98
2023-05-04T07:07:22.709Z,26.15
2023-05-04T07:08:22.741Z,26.56
2023-05-04T07:09:22.690Z,27.27
2023-05-04T07:10:22.696Z,27.71
2023-05-04T07:11:22.666Z,27.90
2023-05-04T07:12:22.653Z,28.32
2023-05-04T07:13:22.657Z,28.57
2023-05-04T07:14:22.648Z,29.16
2023-05-04T07:15:22.741Z,29.50
2023-05-04T07:16:22.639Z,30.00
2023-05-04T07:17:22.729Z,29.65
2023-05-04T07:18:22.608Z,28.85
2023-05-04T07:19:22.588Z,29.35
2023-05-04T07:20:25.112Z,29.72
2023-05-04T07:21:28.458Z,30.10
2023-05-04T07:22:23.557Z,30.61
2023-05-04T07:23:22.564Z,31.18
2023-05-04T07:24:22.522Z,31.34
2023-05-04T07:25:22.511Z,31.54
2023-05-04T07:26:22.513Z,31.56
2023-05-04T07:27:22.483Z,31.17
2023-05-04T07:28:22.475Z,31.36
2023-05-04T07:29:22.612Z,32.16
2023-05-04T07:30:22.452Z,32.87
2023-05-04T07:31:22.454Z,33.31
2023-05-04T07:32:22.499Z,33.61
2023-05-04T07:33:22.438Z,34.10
2023-05-04T07:34:30.525Z,33.77
2023-05-04T07:35:23.435Z,33.65
2023-05-04T07:36:22.390Z,34.06
2023-05-04T07:37:22.379Z,34.35
2023-05-04T07:38:22.369Z,34.75
2023-05-04T07:39:22.423Z,34.86
2023-05-04T07:40:22.361Z,34.75
2023-05-04T07:41:22.386Z,34.62
2023-05-04T07:42:22.324Z,34.86
2023-05-04T07:43:22.327Z,35.27
2023-05-04T07:44:22.302Z,35.44
2023-05-04T07:45:22.381Z,34.60
2023-05-04T07:46:22.323Z,34.71
2023-05-04T07:47:23.055Z,35.18
2023-05-04T07:48:23.418Z,35.68
2023-05-04T07:49:22.250Z,36.12
2023-05-04T07:50:22.270Z,36.12
2023-05-04T07:51:22.281Z,36.30
2023-05-04T07:52:22.216Z,36.31
2023-05-04T07:53:22.206Z,36.55
2023-05-04T07:54:22.998Z,36.74
2023-05-04T07:55:22.195Z,37.02
2023-05-04T07:56:22.193Z,37.28
2023-05-04T07:57:22.167Z,37.21
2023-05-04T07:58:22.156Z,37.29
2023-05-04T07:59:22.145Z,37.02
2023-05-04T08:00:22.160Z,37.08
2023-05-04T08:01:22.384Z,37.06
2023-05-04T08:02:23.321Z,37.06
2023-05-04T08:03:22.919Z,37.48
2023-05-04T08:04:22.142Z,36.02
2023-05-04T08:05:22.154Z,36.23
2023-05-04T08:06:22.068Z,36.80
2023-05-04T08:07:22.060Z,36.91
2023-05-04T08:08:22.048Z,37.39
2023-05-04T08:09:22.065Z,37.94
2023-05-04T08:10:22.029Z,38.08
2023-05-04T08:11:22.016Z,37.83
2023-05-04T08:12:22.006Z,38.19
2023-05-04T08:13:22.021Z,38.79
2023-05-04T08:14:22.001Z,38.83
2023-05-04T08:15:22.085Z,38.38
2023-05-04T08:16:21.968Z,37.72
2023-05-04T08:17:22.301Z,37.32
2023-05-04T08:18:21.980Z,36.93
2023-05-04T08:19:21.948Z,37.03
2023-05-04T08:20:23.615Z,37.55
2023-05-04T08:21:21.929Z,36.62
2023-05-04T08:22:21.922Z,36.61
2023-05-04T08:23:21.901Z,36.59
2023-05-04T08:24:21.906Z,36.93
2023-05-04T08:25:21.892Z,36.89
2023-05-04T08:26:21.869Z,37.02
2023-05-04T08:27:22.054Z,37.07
2023-05-04T08:28:21.858Z,37.17
2023-05-04T08:29:21.909Z,37.36
2023-05-04T08:30:21.834Z,36.79
2023-05-04T08:31:21.850Z,36.12
2023-05-04T08:32:21.844Z,35.64
2023-05-04T08:33:21.926Z,36.23
2023-05-04T08:34:21.802Z,36.70
2023-05-04T08:35:21.803Z,37.03
2023-05-04T08:36:21.768Z,36.76
2023-05-04T08:37:21.766Z,35.83
2023-05-04T08:38:21.757Z,36.04
2023-05-04T08:39:21.892Z,36.14
2023-05-04T08:40:21.732Z,36.68
2023-05-04T08:41:21.790Z,37.42
2023-05-04T08:42:21.713Z,37.42
2023-05-04T08:43:21.711Z,36.79
2023-05-04T08:44:21.691Z,36.58
2023-05-04T08:45:21.684Z,36.84
2023-05-04T08:46:21.755Z,37.06
2023-05-04T08:47:21.672Z,36.25
2023-05-04T08:48:21.651Z,35.17
2023-05-04T08:49:21.792Z,34.73
2023-05-04T08:50:21.629Z,33.67
2023-05-04T08:51:21.619Z,32.73
2023-05-04T08:52:21.631Z,32.03
2023-05-04T08:53:21.611Z,31.62
2023-05-04T08:54:21.586Z,31.74
2023-05-04T08:55:21.582Z,32.95
2023-05-04T08:56:21.574Z,34.16
2023-05-04T08:57:21.574Z,34.90
2023-05-04T08:58:21.629Z,36.14
2023-05-04T08:59:21.590Z,36.62
2023-05-04T09:00:21.548Z,36.98
2023-05-04T09:01:21.618Z,36.83
2023-05-04T09:02:21.594Z,36.68
2023-05-04T09:03:21.533Z,36.91
2023-05-04T09:04:21.491Z,37.60
2023-05-04T09:06:12.501Z,38.48
2023-05-04T09:07:12.415Z,39.18
2023-05-04T09:08:12.420Z,39.44
2023-05-04T09:09:12.393Z,39.07
2023-05-04T09:10:12.390Z,39.30
2023-05-04T09:11:12.381Z,38.80
2023-05-04T09:12:12.390Z,37.94
2023-05-04T09:13:12.474Z,38.04
2023-05-04T09:14:12.350Z,37.44
2023-05-04T09:15:13.178Z,38.02
2023-05-04T09:16:14.652Z,38.73
2023-05-04T09:17:12.408Z,38.96
2023-05-04T09:18:12.370Z,38.95
2023-05-04T09:19:12.298Z,39.51
2023-05-04T09:20:12.295Z,39.46
2023-05-04T09:21:12.303Z,38.76
2023-05-04T09:22:12.408Z,38.68
2023-05-04T09:23:12.286Z,38.20
2023-05-04T09:24:12.255Z,37.93
2023-05-04T09:25:12.236Z,37.48
2023-05-04T09:26:12.249Z,37.17
2023-05-04T09:27:12.216Z,37.36
2023-05-04T09:28:12.211Z,37.97
2023-05-04T09:29:12.202Z,39.03
2023-05-04T09:30:12.190Z,40.05
2023-05-04T09:31:12.250Z,40.43
2023-05-04T09:32:12.185Z,40.73
2023-05-04T09:33:12.181Z,41.09
2023-05-04T09:34:12.174Z,41.65
2023-05-04T09:35:18.711Z,41.49
2023-05-04T09:36:13.153Z,41.03
2023-05-04T09:37:12.645Z,41.37
2023-05-04T09:38:12.127Z,41.80
2023-05-04T09:39:12.104Z,41.99
2023-05-04T09:40:12.096Z,42.10
2023-05-04T09:41:12.099Z,41.94
2023-05-04T09:42:12.080Z,42.02
2023-05-04T09:43:12.071Z,41.88
2023-05-04T09:44:12.057Z,41.68
2023-05-04T09:45:12.082Z,41.52
2023-05-04T09:46:12.288Z,41.09
2023-05-04T09:47:12.026Z,39.99
2023-05-04T09:48:12.023Z,38.68
2023-05-04T09:49:12.010Z,37.90
2023-05-04T09:50:12.009Z,37.78
2023-05-04T09:51:12.004Z,36.93
2023-05-04T09:52:12.006Z,36.67
2023-05-04T09:53:11.976Z,36.57
2023-05-04T09:54:12.327Z,36.27
2023-05-04T09:55:11.989Z,36.02
2023-05-04T09:56:11.972Z,35.98
2023-05-04T09:57:12.615Z,36.14
2023-05-04T09:58:11.998Z,36.14
2023-05-04T09:59:12.269Z,36.31
2023-05-04T10:00:12.648Z,36.51
2023-05-04T10:01:11.962Z,36.31
2023-05-04T10:02:21.841Z,35.79
2023-05-04T10:03:12.908Z,36.02
2023-05-04T10:04:11.989Z,36.23
2023-05-04T10:05:12.058Z,34.62
2023-05-04T10:06:11.985Z,34.88
2023-05-04T10:07:12.691Z,34.85
2023-05-04T10:08:12.631Z,35.41
2023-05-04T10:09:12.031Z,35.41
2023-05-04T10:10:12.635Z,35.49
2023-05-04T10:11:11.817Z,36.30
2023-05-04T10:12:11.802Z,36.30
2023-05-04T10:13:11.847Z,36.84
2023-05-04T10:14:11.777Z,37.84
2023-05-04T10:15:11.775Z,38.69
2023-05-04T10:16:11.833Z,39.36
2023-05-04T10:17:13.870Z,39.25
2023-05-04T10:18:11.733Z,39.25
2023-05-04T10:19:11.728Z,39.07
2023-05-04T10:20:11.735Z,39.38
2023-05-04T10:21:11.697Z,39.55
2023-05-04T10:22:11.694Z,39.81
2023-05-04T10:23:11.685Z,38.92
2023-05-04T10:24:11.679Z,37.97
2023-05-04T10:25:11.677Z,38.19
2023-05-04T10:26:11.776Z,37.67
2023-05-04T10:27:11.640Z,36.93
2023-05-04T10:28:11.633Z,36.79
2023-05-04T10:29:11.710Z,36.67
2023-05-04T10:30:11.665Z,35.71
2023-05-04T10:31:11.789Z,35.37
2023-05-04T10:32:11.594Z,34.27
2023-05-04T10:33:11.584Z,33.55
2023-05-04T10:34:11.600Z,32.59
2023-05-04T10:35:11.584Z,32.18
2023-05-04T10:36:11.637Z,32.21
2023-05-04T10:37:11.547Z,32.38
2023-05-04T10:38:11.538Z,33.09
2023-05-04T10:39:11.529Z,34.17
2023-05-04T10:40:11.531Z,35.29
2023-05-04T10:41:11.508Z,35.64
2023-05-04T10:42:11.527Z,35.89
2023-05-04T10:43:11.502Z,35.80
2023-05-04T10:44:11.504Z,35.76
2023-05-04T10:45:11.472Z,35.67
2023-05-04T10:46:11.596Z,35.19
2023-05-04T10:47:11.473Z,33.95
2023-05-04T10:48:11.527Z,33.32
2023-05-04T10:49:11.456Z,33.55
2023-05-04T10:50:11.449Z,34.33
2023-05-04T10:51:11.415Z,34.70
2023-05-04T10:52:11.414Z,35.17
2023-05-04T10:53:11.424Z,35.63
2023-05-04T10:54:11.401Z,35.85
2023-05-04T10:55:11.380Z,36.23
2023-05-04T10:56:11.387Z,35.88
2023-05-04T10:57:11.393Z,35.74
2023-05-04T10:58:11.489Z,36.00
2023-05-04T10:59:11.344Z,36.05
2023-05-04T11:00:11.340Z,35.66
2023-05-04T11:01:11.359Z,35.30
2023-05-04T11:02:11.326Z,34.74
2023-05-04T11:03:11.444Z,33.98
2023-05-04T11:04:11.298Z,33.65
2023-05-04T11:05:11.294Z,33.73
2023-05-04T11:06:11.266Z,33.47
2023-05-04T11:07:11.276Z,32.55
2023-05-04T11:08:11.292Z,32.00
2023-05-04T11:09:11.266Z,32.14
2023-05-04T11:10:11.232Z,32.16
2023-05-04T11:11:11.228Z,32.14
2023-05-04T11:12:11.230Z,32.01
2023-05-04T11:13:11.259Z,31.96
2023-05-04T11:14:11.217Z,32.04
2023-05-04T11:15:11.188Z,32.11
2023-05-04T11:16:11.209Z,31.80
2023-05-04T11:17:26.863Z,31.02
2023-05-04T11:18:12.169Z,29.98
2023-05-04T11:19:11.155Z,29.38
2023-05-04T11:20:11.140Z,28.91
2023-05-04T11:21:11.144Z,28.63
2023-05-04T11:22:11.114Z,28.49
2023-05-04T11:23:11.107Z,28.57
2023-05-04T11:24:11.099Z,28.96
2023-05-04T11:25:11.090Z,29.59
2023-05-04T11:26:11.100Z,30.09
2023-05-04T11:27:11.071Z,30.55
2023-05-04T11:28:11.091Z,30.77
2023-05-04T11:29:11.045Z,31.21
2023-05-04T11:30:11.056Z,31.44
2023-05-04T11:31:11.113Z,31.02
2023-05-04T11:32:11.011Z,30.39
2023-05-04T11:33:11.008Z,30.03
2023-05-04T11:34:10.994Z,30.00
2023-05-04T11:35:10.985Z,30.10
2023-05-04T11:36:10.993Z,30.69
2023-05-04T11:37:11.053Z,30.97
2023-05-04T11:38:10.954Z,30.96
2023-05-04T11:39:10.948Z,31.03
2023-05-04T11:40:10.955Z,31.27
2023-05-04T11:41:10.953Z,31.51
2023-05-04T11:42:10.915Z,31.85
2023-05-04T11:43:10.917Z,32.01
2023-05-04T11:44:11.067Z,32.07
2023-05-04T11:45:10.908Z,32.07
2023-05-04T11:46:11.055Z,31.87
2023-05-04T11:47:10.867Z,31.34
2023-05-04T11:48:10.979Z,30.81
2023-05-04T11:49:10.859Z,30.83
2023-05-04T11:50:10.853Z,30.84
2023-05-04T11:51:10.830Z,30.57
2023-05-04T11:52:10.819Z,30.34
2023-05-04T11:53:10.812Z,30.13
2023-05-04T11:54:10.806Z,29.97
2023-05-04T11:55:10.808Z,29.68
2023-05-04T11:56:10.843Z,29.45
2023-05-04T11:57:10.775Z,29.59
2023-05-04T11:58:10.778Z,29.23
2023-05-04T11:59:10.778Z,28.35
2023-05-04T12:00:10.764Z,28.30
2023-05-04T12:01:10.750Z,28.72
2023-05-04T12:02:10.776Z,28.84
2023-05-04T12:03:10.775Z,28.00
2023-05-04T12:04:10.756Z,27.71
2023-05-04T12:05:10.728Z,26.92
2023-05-04T12:06:10.705Z,26.85
2023-05-04T12:07:10.692Z,26.96
2023-05-04T12:08:10.673Z,26.52
2023-05-04T12:09:10.654Z,26.41
2023-05-04T12:10:10.667Z,26.63
2023-05-04T12:11:10.660Z,26.81
2023-05-04T12:12:10.620Z,27.02
2023-05-04T12:13:10.655Z,27.42
2023-05-04T12:14:10.603Z,27.25
2023-05-04T12:15:10.690Z,27.10
2023-05-04T12:16:10.608Z,27.29
2023-05-04T12:17:10.570Z,27.55
2023-05-04T12:18:10.580Z,27.47
2023-05-04T12:19:11.594Z,27.42
2023-05-04T12:20:10.583Z,27.40
2023-05-04T12:21:10.550Z,27.52
2023-05-04T12:22:10.527Z,27.51
2023-05-04T12:23:10.509Z,27.42
2023-05-04T12:24:10.517Z,27.26
2023-05-04T12:25:10.555Z,26.90
2023-05-04T12:26:10.633Z,26.28
2023-05-04T12:27:10.480Z,26.16
2023-05-04T12:28:10.457Z,26.26
2023-05-04T12:29:10.450Z,26.18
2023-05-04T12:30:10.518Z,26.02
2023-05-04T12:31:10.469Z,26.09
2023-05-04T12:32:10.510Z,26.10
2023-05-04T12:33:10.524Z,26.43
2023-05-04T12:34:10.440Z,26.29
2023-05-04T12:35:10.403Z,26.29
2023-05-04T12:36:10.375Z,26.44
2023-05-04T12:37:10.362Z,26.41
2023-05-04T12:38:10.355Z,26.28
2023-05-04T12:39:10.343Z,26.05
2023-05-04T12:40:21.091Z,25.78
2023-05-04T12:41:11.360Z,25.87
2023-05-04T12:42:10.316Z,25.88
2023-05-04T12:43:10.313Z,25.85
2023-05-04T12:44:10.305Z,25.91
2023-05-04T12:45:10.317Z,25.78
2023-05-04T12:46:10.341Z,25.85
2023-05-04T12:47:10.260Z,25.91
2023-05-04T12:48:10.254Z,25.65
2023-05-04T12:49:10.333Z,25.43
2023-05-04T12:50:10.339Z,25.32
2023-05-04T12:51:10.224Z,25.41
2023-05-04T12:52:10.207Z,25.40
2023-05-04T12:53:10.234Z,25.50
2023-05-04T12:54:10.191Z,25.68
2023-05-04T12:55:10.268Z,25.80
2023-05-04T12:56:10.198Z,25.88
2023-05-04T12:57:10.182Z,26.15
2023-05-04T12:58:10.163Z,26.06
2023-05-04T12:59:10.213Z,26.21
2023-05-04T13:00:10.233Z,26.23
2023-05-04T13:01:10.771Z,26.31
2023-05-04T13:02:10.119Z,26.36
2023-05-04T13:03:10.180Z,26.38
2023-05-04T13:04:10.104Z,26.52